Time;durP1;ratioP1;P1;durP2;ratioP2;P2;SDS_P1;SDS_P2;PMS_P1;PMS_P2;Temp;Humidity;BMP_temperature;BMP_pressure;BME280_temperature;BME280_humidity;BME280_pressure;Samples;Min_cycle;Max_cycle;Signal;HPM_P1;HPM_P2
2023/09/05 00:00:26;;;;;;;1.92;1.83;;;;;;;;;;5000104;28;20209;-70
2023/09/05 00:02:53;;;;;;;2.88;2.15;;;;;;;;;;4995452;28;20306;-69
2023/09/05 00:05:21;;;;;;;3.00;2.03;;;;;;;;;;4997172;28;20201;-70
2023/09/05 00:07:48;;;;;;;2.10;1.92;;;;;;;;;;4999156;28;20283;-70
2023/09/05 00:10:17;;;;;;;2.60;2.00;;;;;;;;;;4997949;28;20197;-70
2023/09/05 00:12:46;;;;;;;2.50;2.30;;;;;;;;;;4999687;28;20212;-70
2023/09/05 00:15:14;;;;;;;2.65;2.30;;;;;;;;;;4996217;28;20217;-70
2023/09/05 00:17:42;;;;;;;2.38;2.17;;;;;;;;;;4997547;28;20201;-70
2023/09/05 00:20:11;;;;;;;5.20;2.20;;;;;;;;;;4993696;28;20205;-70
2023/09/05 00:22:38;;;;;;;3.22;2.00;;;;;;;;;;5002144;28;20204;-70
2023/09/05 00:25:06;;;;;;;2.28;2.17;;;;;;;;;;4998617;28;20205;-69
2023/09/05 00:27:35;;;;;;;3.55;1.95;;;;;;;;;;4995125;28;20221;-70
2023/09/05 00:30:03;;;;;;;2.65;2.13;;;;;;;;;;4997134;28;20209;-67
2023/09/05 00:32:32;;;;;;;5.70;2.10;;;;;;;;;;4999511;28;20216;-69
2023/09/05 00:35:00;;;;;;;2.38;2.17;;;;;;;;;;5000769;28;20219;-68
2023/09/05 00:37:29;;;;;;;4.35;2.58;;;;;;;;;;4997260;28;20292;-70
2023/09/05 00:39:57;;;;;;;2.00;1.90;;;;;;;;;;4996308;28;20209;-70
2023/09/05 00:42:24;;;;;;;3.03;2.20;;;;;;;;;;4997341;28;20213;-70
2023/09/05 00:44:53;;;;;;;4.03;2.22;;;;;;;;;;4997447;28;20205;-70
2023/09/05 00:47:22;;;;;;;2.53;2.33;;;;;;;;;;4994932;28;20295;-68
2023/09/05 00:49:50;;;;;;;1.85;1.75;;;;;;;;;;5000483;28;20201;-70
2023/09/05 00:52:19;;;;;;;2.30;2.10;;;;;;;;;;4997096;28;20220;-69
2023/09/05 00:54:47;;;;;;;2.30;2.10;;;;;;;;;;5001380;28;20212;-68
2023/09/05 00:57:16;;;;;;;2.47;2.05;;;;;;;;;;4999351;28;20205;-69
2023/09/05 00:59:44;;;;;;;2.17;1.98;;;;;;;;;;5003900;28;20201;-70
2023/09/05 01:02:12;;;;;;;2.17;1.98;;;;;;;;;;5000406;28;20264;-69
2023/09/05 01:04:41;;;;;;;2.20;2.00;;;;;;;;;;5002580;28;20205;-70
2023/09/05 01:07:14;;;;;;;2.50;2.33;;;;;;;;;;5003038;28;20205;-69
2023/09/05 01:09:47;;;;;;;2.45;2.17;;;;;;;;;;5005974;28;20227;-69
2023/09/05 01:12:14;;;;;;;2.53;2.08;;;;;;;;;;4997454;28;20209;-68
2023/09/05 01:14:42;;;;;;;2.10;2.00;;;;;;;;;;5001423;28;20213;-70
2023/09/05 01:17:09;;;;;;;2.25;1.92;;;;;;;;;;5002298;28;20214;-70
2023/09/05 01:19:39;;;;;;;3.05;1.90;;;;;;;;;;5001835;28;20201;-70
2023/09/05 01:22:13;;;;;;;3.03;2.30;;;;;;;;;;5007258;28;20212;-70
2023/09/05 01:24:41;;;;;;;3.05;2.22;;;;;;;;;;4997858;28;20205;-70
2023/09/05 01:27:09;;;;;;;2.53;2.15;;;;;;;;;;5003177;28;20212;-69
2023/09/05 01:29:39;;;;;;;6.28;2.03;;;;;;;;;;4996836;28;20233;-69
2023/09/05 01:32:07;;;;;;;3.63;2.30;;;;;;;;;;5240244;23;20228;-92
2023/09/05 01:34:34;;;;;;;2.42;2.25;;;;;;;;;;4994403;28;20209;-91
2023/09/05 01:37:01;;;;;;;3.03;2.03;;;;;;;;;;5001461;28;20296;-93
2023/09/05 01:39:28;;;;;;;2.38;2.17;;;;;;;;;;5002299;28;20207;-91
2023/09/05 01:41:59;;;;;;;2.67;2.15;;;;;;;;;;5001456;28;20241;-90
2023/09/05 01:44:26;;;;;;;2.20;2.00;;;;;;;;;;5002664;28;20196;-91
2023/09/05 01:46:53;;;;;;;2.35;2.10;;;;;;;;;;5003007;28;20227;-92
2023/09/05 01:49:21;;;;;;;2.65;2.10;;;;;;;;;;4998887;28;20231;-93
2023/09/05 01:51:48;;;;;;;2.38;2.15;;;;;;;;;;5003060;28;20315;-92
2023/09/05 01:54:15;;;;;;;3.42;2.10;;;;;;;;;;5002482;28;20710;-92
2023/09/05 01:56:42;;;;;;;2.20;2.00;;;;;;;;;;5003067;28;20300;-93
2023/09/05 01:59:11;;;;;;;3.70;1.98;;;;;;;;;;5005160;28;20293;-93
2023/09/05 02:01:38;;;;;;;2.20;2.10;;;;;;;;;;5000447;28;20286;-92
2023/09/05 02:04:06;;;;;;;3.42;2.22;;;;;;;;;;5003009;28;20321;-91
2023/09/05 02:06:33;;;;;;;3.97;2.50;;;;;;;;;;5000589;28;20235;-93
2023/09/05 02:09:00;;;;;;;2.17;2.08;;;;;;;;;;5002392;28;20232;-91
2023/09/05 02:11:27;;;;;;;2.65;2.33;;;;;;;;;;5003238;28;20235;-91
2023/09/05 02:13:54;;;;;;;2.97;1.90;;;;;;;;;;5003801;28;20309;-92
2023/09/05 02:16:24;;;;;;;2.30;2.10;;;;;;;;;;5003737;28;20209;-92
2023/09/05 02:18:51;;;;;;;3.05;2.00;;;;;;;;;;5000713;28;20228;-93
2023/09/05 02:21:19;;;;;;;2.67;2.30;;;;;;;;;;5007347;28;20203;-92
2023/09/05 02:23:46;;;;;;;2.28;2.08;;;;;;;;;;5002902;28;20233;-93
2023/09/05 02:26:14;;;;;;;2.88;2.03;;;;;;;;;;5002273;28;20205;-92
2023/09/05 02:28:41;;;;;;;2.08;1.88;;;;;;;;;;5001803;28;20228;-92
2023/09/05 02:31:08;;;;;;;2.13;1.92;;;;;;;;;;5002956;28;20303;-92
2023/09/05 02:33:37;;;;;;;2.90;2.17;;;;;;;;;;5002439;28;20296;-92
2023/09/05 02:36:08;;;;;;;2.05;1.95;;;;;;;;;;5000908;28;20358;-92
2023/09/05 02:38:37;;;;;;;2.15;1.98;;;;;;;;;;5003489;28;20283;-92
2023/09/05 02:41:04;;;;;;;2.60;2.40;;;;;;;;;;5004000;28;20252;-92
2023/09/05 02:43:31;;;;;;;2.13;2.03;;;;;;;;;;5002630;28;20202;-92
2023/09/05 02:45:58;;;;;;;2.40;2.20;;;;;;;;;;5005301;28;20209;-92
2023/09/05 02:48:26;;;;;;;3.03;2.10;;;;;;;;;;5001663;28;20229;-92
2023/09/05 02:51:04;;;;;;;2.25;2.10;;;;;;;;;;5003843;28;20244;-92
2023/09/05 02:53:31;;;;;;;2.58;2.20;;;;;;;;;;5002926;28;20235;-92
2023/09/05 02:55:58;;;;;;;2.15;1.95;;;;;;;;;;5001280;28;20296;-93
2023/09/05 02:58:28;;;;;;;2.22;2.08;;;;;;;;;;5001492;28;20211;-91
2023/09/05 03:00:59;;;;;;;2.20;2.03;;;;;;;;;;5002610;28;20217;-92
2023/09/05 03:03:26;;;;;;;2.08;1.85;;;;;;;;;;5004143;28;20213;-92
2023/09/05 03:05:53;;;;;;;2.88;2.10;;;;;;;;;;5003125;28;20264;-92
2023/09/05 03:08:22;;;;;;;3.08;2.10;;;;;;;;;;4995666;28;20208;-92
2023/09/05 03:10:54;;;;;;;2.75;2.30;;;;;;;;;;5004667;28;20435;-92
2023/09/05 03:13:21;;;;;;;3.15;2.22;;;;;;;;;;5003537;28;20234;-91
2023/09/05 03:15:52;;;;;;;2.38;2.17;;;;;;;;;;5003183;28;20210;-92
2023/09/05 03:18:20;;;;;;;2.10;2.00;;;;;;;;;;5001886;28;20213;-92
2023/09/05 03:20:47;;;;;;;2.03;1.92;;;;;;;;;;5006002;28;20232;-92
2023/09/05 03:23:14;;;;;;;2.80;2.42;;;;;;;;;;5004442;28;20209;-92
2023/09/05 03:25:43;;;;;;;2.85;2.13;;;;;;;;;;5004540;28;20201;-91
2023/09/05 03:28:12;;;;;;;2.22;2.13;;;;;;;;;;5003746;28;20211;-90
2023/09/05 03:30:39;;;;;;;2.33;2.10;;;;;;;;;;5008737;28;20216;-92
2023/09/05 03:33:06;;;;;;;2.63;1.90;;;;;;;;;;5007614;28;20335;-92
2023/09/05 03:35:34;;;;;;;2.17;2.08;;;;;;;;;;5002550;28;20212;-91
2023/09/05 03:38:01;;;;;;;2.30;2.20;;;;;;;;;;4999838;28;20572;-92
2023/09/05 03:40:28;;;;;;;3.28;2.28;;;;;;;;;;5004046;28;20292;-92
2023/09/05 03:42:57;;;;;;;2.60;2.40;;;;;;;;;;5003233;28;20255;-93
2023/09/05 03:45:24;;;;;;;2.40;2.25;;;;;;;;;;4999764;28;20292;-92
2023/09/05 03:47:51;;;;;;;2.25;2.05;;;;;;;;;;5004979;28;20215;-92
2023/09/05 03:50:19;;;;;;;3.42;2.13;;;;;;;;;;4997660;28;20227;-92
2023/09/05 03:52:46;;;;;;;2.40;1.90;;;;;;;;;;5003196;28;20197;-93
2023/09/05 03:55:14;;;;;;;4.90;2.50;;;;;;;;;;5000142;28;20220;-92
2023/09/05 03:57:41;;;;;;;2.42;2.00;;;;;;;;;;5004298;28;20215;-92
2023/09/05 04:00:10;;;;;;;2.38;2.28;;;;;;;;;;4999025;28;20208;-92
2023/09/05 04:02:37;;;;;;;2.78;2.25;;;;;;;;;;4997004;28;20205;-91
2023/09/05 04:05:05;;;;;;;2.30;2.03;;;;;;;;;;4999168;28;20217;-92
2023/09/05 04:07:32;;;;;;;3.25;2.25;;;;;;;;;;5002390;28;20205;-92
2023/09/05 04:09:59;;;;;;;2.35;2.17;;;;;;;;;;4999544;28;20221;-93
2023/09/05 04:12:27;;;;;;;2.35;2.10;;;;;;;;;;5000903;28;20220;-92
2023/09/05 04:14:54;;;;;;;2.13;1.95;;;;;;;;;;4999164;28;20224;-92
2023/09/05 04:17:23;;;;;;;6.13;2.25;;;;;;;;;;5001227;28;20273;-92
2023/09/05 04:19:53;;;;;;;2.53;2.33;;;;;;;;;;5002265;28;20219;-93
2023/09/05 04:22:21;;;;;;;2.65;2.45;;;;;;;;;;5005915;28;20237;-92
2023/09/05 04:24:52;;;;;;;2.10;2.00;;;;;;;;;;5001649;28;20201;-93
2023/09/05 04:27:21;;;;;;;2.60;2.40;;;;;;;;;;5003222;28;20200;-91
2023/09/05 04:29:50;;;;;;;2.30;2.10;;;;;;;;;;5006886;28;20235;-92
2023/09/05 04:32:18;;;;;;;2.35;2.15;;;;;;;;;;5006606;28;20355;-88
2023/09/05 04:34:47;;;;;;;2.13;1.98;;;;;;;;;;5006485;28;20229;-87
2023/09/05 04:37:17;;;;;;;2.95;2.00;;;;;;;;;;5007372;28;20215;-88
2023/09/05 04:39:44;;;;;;;2.58;2.10;;;;;;;;;;5005415;28;20211;-88
2023/09/05 04:42:11;;;;;;;2.20;2.10;;;;;;;;;;5016075;28;20214;-87
2023/09/05 04:44:39;;;;;;;2.78;2.20;;;;;;;;;;5005710;28;20296;-87
2023/09/05 04:47:22;;;;;;;2.40;2.20;;;;;;;;;;5008757;28;20220;-87
2023/09/05 04:49:51;;;;;;;2.55;2.33;;;;;;;;;;5013027;28;20225;-88
2023/09/05 04:52:18;;;;;;;2.60;2.40;;;;;;;;;;5008963;28;20236;-88
2023/09/05 04:54:46;;;;;;;2.08;1.98;;;;;;;;;;5001408;28;20197;-87
2023/09/05 04:57:13;;;;;;;2.67;1.95;;;;;;;;;;5002572;28;20231;-88
2023/09/05 04:59:43;;;;;;;2.22;2.13;;;;;;;;;;5007735;28;20240;-87
2023/09/05 05:02:11;;;;;;;2.28;2.03;;;;;;;;;;4998752;28;20221;-87
2023/09/05 05:04:38;;;;;;;2.28;1.90;;;;;;;;;;5004086;28;20216;-88
2023/09/05 05:07:07;;;;;;;2.22;2.13;;;;;;;;;;5002176;28;20260;-88
2023/09/05 05:09:34;;;;;;;2.15;1.95;;;;;;;;;;4998315;28;20221;-89
2023/09/05 05:12:02;;;;;;;2.97;2.10;;;;;;;;;;4996477;28;20217;-88
2023/09/05 05:14:30;;;;;;;3.80;2.20;;;;;;;;;;5001723;28;20236;-89
2023/09/05 05:16:58;;;;;;;2.70;2.25;;;;;;;;;;5006829;28;20213;-88
2023/09/05 05:19:26;;;;;;;2.53;2.30;;;;;;;;;;5000435;28;20286;-88
2023/09/05 05:21:53;;;;;;;2.50;2.30;;;;;;;;;;5002465;28;20209;-88
2023/09/05 05:24:22;;;;;;;3.80;2.10;;;;;;;;;;5000008;28;20228;-88
2023/09/05 05:26:50;;;;;;;2.30;2.10;;;;;;;;;;5007959;28;20209;-88
2023/09/05 05:29:17;;;;;;;2.47;2.30;;;;;;;;;;5000673;28;20236;-88
2023/09/05 05:31:44;;;;;;;2.42;2.20;;;;;;;;;;5009137;28;20289;-88
2023/09/05 05:34:12;;;;;;;2.17;2.00;;;;;;;;;;5004037;28;20259;-88
2023/09/05 05:36:39;;;;;;;2.83;2.20;;;;;;;;;;5007010;28;20224;-88
2023/09/05 05:39:06;;;;;;;2.00;1.77;;;;;;;;;;5002523;28;20268;-88
2023/09/05 05:41:35;;;;;;;3.95;2.10;;;;;;;;;;5004404;28;20217;-88
2023/09/05 05:44:02;;;;;;;2.50;2.30;;;;;;;;;;5004287;28;20228;-89
2023/09/05 05:46:30;;;;;;;1.90;1.80;;;;;;;;;;5006001;28;20208;-88
2023/09/05 05:48:58;;;;;;;1.95;1.80;;;;;;;;;;4996021;28;20232;-88
2023/09/05 05:51:27;;;;;;;2.20;2.00;;;;;;;;;;5003098;28;20205;-87
2023/09/05 05:53:57;;;;;;;2.78;2.30;;;;;;;;;;5011397;28;20216;-88
2023/09/05 05:56:24;;;;;;;2.33;2.00;;;;;;;;;;5006659;28;20239;-88
2023/09/05 05:58:53;;;;;;;4.03;2.15;;;;;;;;;;5004934;28;20486;-88
2023/09/05 06:01:21;;;;;;;2.65;2.03;;;;;;;;;;5006516;28;20223;-88
2023/09/05 06:03:48;;;;;;;4.07;2.00;;;;;;;;;;5010176;28;20232;-88
2023/09/05 06:06:16;;;;;;;2.35;2.15;;;;;;;;;;4999756;28;20204;-88
2023/09/05 06:08:43;;;;;;;3.75;1.80;;;;;;;;;;4999578;28;20209;-87
2023/09/05 06:11:11;;;;;;;2.10;2.00;;;;;;;;;;5008092;28;20224;-88
2023/09/05 06:13:38;;;;;;;2.00;1.90;;;;;;;;;;5003127;28;20257;-89
2023/09/05 06:16:07;;;;;;;2.85;1.95;;;;;;;;;;5007447;28;20227;-88
2023/09/05 06:18:34;;;;;;;5.10;2.00;;;;;;;;;;5005275;28;20213;-87
2023/09/05 06:21:01;;;;;;;2.75;2.30;;;;;;;;;;5003648;28;20220;-86
2023/09/05 06:23:30;;;;;;;2.08;1.98;;;;;;;;;;5000890;28;20229;-87
2023/09/05 06:25:57;;;;;;;1.98;1.88;;;;;;;;;;5003138;28;20651;-87
2023/09/05 06:28:24;;;;;;;2.22;2.03;;;;;;;;;;5004473;28;20448;-87
2023/09/05 06:30:52;;;;;;;2.33;1.85;;;;;;;;;;5010091;28;20315;-88
2023/09/05 06:33:21;;;;;;;2.38;2.15;;;;;;;;;;5006293;28;20243;-87
2023/09/05 06:35:48;;;;;;;2.58;2.30;;;;;;;;;;5007953;28;20209;-88
2023/09/05 06:38:15;;;;;;;3.40;1.92;;;;;;;;;;5006411;28;20202;-88
2023/09/05 06:40:43;;;;;;;2.53;2.25;;;;;;;;;;5000852;28;20209;-88
2023/09/05 06:43:10;;;;;;;3.03;2.45;;;;;;;;;;4997115;28;20213;-88
2023/09/05 06:45:38;;;;;;;2.30;2.10;;;;;;;;;;5007786;28;20200;-88
2023/09/05 06:48:05;;;;;;;2.08;1.98;;;;;;;;;;5005914;28;20251;-87
2023/09/05 06:50:34;;;;;;;2.05;1.90;;;;;;;;;;5002573;28;20345;-87
2023/09/05 06:53:01;;;;;;;3.40;2.20;;;;;;;;;;5004827;28;20477;-91
2023/09/05 06:55:28;;;;;;;2.20;2.10;;;;;;;;;;5005913;28;20247;-92
2023/09/05 06:57:56;;;;;;;2.10;2.00;;;;;;;;;;5005002;28;20273;-90
2023/09/05 07:00:25;;;;;;;2.50;2.30;;;;;;;;;;5007246;28;20209;-92
2023/09/05 07:02:52;;;;;;;3.15;1.90;;;;;;;;;;5009280;28;20272;-91
2023/09/05 07:05:21;;;;;;;2.88;2.10;;;;;;;;;;5007097;28;20209;-92
2023/09/05 07:07:50;;;;;;;2.33;2.13;;;;;;;;;;5008911;28;20219;-92
2023/09/05 07:10:17;;;;;;;2.30;2.10;;;;;;;;;;5004975;28;20237;-92
2023/09/05 07:12:44;;;;;;;2.33;2.10;;;;;;;;;;5004824;28;20232;-93
2023/09/05 07:15:12;;;;;;;2.38;2.17;;;;;;;;;;5000785;28;20216;-92
2023/09/05 07:17:39;;;;;;;2.22;1.90;;;;;;;;;;5005045;28;20212;-92
2023/09/05 07:20:08;;;;;;;3.72;1.83;;;;;;;;;;5001336;28;20201;-92
2023/09/05 07:22:36;;;;;;;2.80;2.10;;;;;;;;;;5005428;28;20216;-92
2023/09/05 07:25:05;;;;;;;3.20;1.90;;;;;;;;;;5007238;28;20494;-92
2023/09/05 07:27:32;;;;;;;1.92;1.70;;;;;;;;;;5001045;28;20220;-93
2023/09/05 07:29:59;;;;;;;1.92;1.83;;;;;;;;;;5008992;28;20217;-93
2023/09/05 07:32:26;;;;;;;2.30;2.20;;;;;;;;;;5002183;28;20228;-91
2023/09/05 07:34:55;;;;;;;2.20;2.10;;;;;;;;;;5001254;28;20201;-91
2023/09/05 07:37:22;;;;;;;2.33;1.77;;;;;;;;;;5001606;28;20205;-91
2023/09/05 07:39:50;;;;;;;3.95;1.88;;;;;;;;;;5003049;28;20215;-92
2023/09/05 07:42:19;;;;;;;1.92;1.77;;;;;;;;;;4999883;28;20295;-91
2023/09/05 07:44:46;;;;;;;2.25;1.77;;;;;;;;;;5000804;28;20212;-93
2023/09/05 07:47:13;;;;;;;2.88;1.80;;;;;;;;;;5001736;28;20260;-92
2023/09/05 07:49:42;;;;;;;2.63;1.92;;;;;;;;;;5003089;28;20255;-91
2023/09/05 07:52:09;;;;;;;2.10;1.63;;;;;;;;;;5003260;28;20205;-91
2023/09/05 07:54:36;;;;;;;2.10;1.90;;;;;;;;;;5001012;28;20205;-93
2023/09/05 07:57:04;;;;;;;2.15;1.60;;;;;;;;;;5003471;28;20217;-93
2023/09/05 07:59:33;;;;;;;1.80;1.70;;;;;;;;;;4999962;28;20300;-92
2023/09/05 08:02:00;;;;;;;1.88;1.70;;;;;;;;;;5002978;28;20205;-91
2023/09/05 08:07:40;;;;;;;6.63;1.58;;;;;;;;;;4999470;28;20223;-92
2023/09/05 08:10:33;;;;;;;1.58;1.48;;;;;;;;;;5003094;28;20220;-91
2023/09/05 08:13:01;;;;;;;1.48;1.27;;;;;;;;;;5003322;28;20208;-91
2023/09/05 08:15:55;;;;;;;2.75;1.77;;;;;;;;;;5000571;28;20291;-92
2023/09/05 08:18:33;;;;;;;1.65;1.55;;;;;;;;;;4977271;28;20229;-91
2023/09/05 08:21:01;;;;;;;1.40;1.30;;;;;;;;;;5005460;28;20197;-91
2023/09/05 08:23:28;;;;;;;1.60;1.50;;;;;;;;;;4995066;28;20213;-92
2023/09/05 08:25:56;;;;;;;1.88;1.77;;;;;;;;;;5001047;28;20300;-91
2023/09/05 08:28:26;;;;;;;1.80;1.70;;;;;;;;;;5000261;28;20205;-92
2023/09/05 08:30:59;;;;;;;3.00;1.60;;;;;;;;;;4999731;28;20243;-91
2023/09/05 08:36:34;;;;;;;2.20;1.65;;;;;;;;;;4981714;28;20238;-91
2023/09/05 08:39:03;;;;;;;2.55;1.65;;;;;;;;;;4997300;28;20205;-91
2023/09/05 08:41:31;;;;;;;2.97;1.50;;;;;;;;;;4995974;28;20205;-94
2023/09/05 08:43:58;;;;;;;3.00;1.80;;;;;;;;;;4999862;28;20273;-91
2023/09/05 08:46:26;;;;;;;1.83;1.70;;;;;;;;;;5001775;28;20255;-92
2023/09/05 08:48:54;;;;;;;1.73;1.63;;;;;;;;;;4995875;28;20220;-92
2023/09/05 08:51:22;;;;;;;1.60;1.50;;;;;;;;;;5003076;28;20256;-92
2023/09/05 08:53:56;;;;;;;1.85;1.67;;;;;;;;;;4999560;28;20202;-92
2023/09/05 08:56:23;;;;;;;1.60;1.50;;;;;;;;;;4997354;28;20202;-93
2023/09/05 08:58:52;;;;;;;1.58;1.48;;;;;;;;;;4995851;28;20208;-93
2023/09/05 09:01:20;;;;;;;1.63;1.52;;;;;;;;;;4996223;28;20217;-92
2023/09/05 09:03:47;;;;;;;2.38;1.67;;;;;;;;;;4993136;28;20218;-92
2023/09/05 09:06:14;;;;;;;1.80;1.70;;;;;;;;;;4997305;28;20281;-92
2023/09/05 09:08:43;;;;;;;1.60;1.50;;;;;;;;;;4999041;28;20213;-92
2023/09/05 09:11:12;;;;;;;2.00;1.35;;;;;;;;;;4998821;28;20221;-92
2023/09/05 09:13:40;;;;;;;1.75;1.65;;;;;;;;;;5007932;28;20266;-88
2023/09/05 09:16:07;;;;;;;3.25;1.60;;;;;;;;;;5012816;28;20240;-87
2023/09/05 09:18:35;;;;;;;1.95;1.75;;;;;;;;;;5007208;28;20304;-87
2023/09/05 09:21:06;;;;;;;1.80;1.70;;;;;;;;;;4998809;28;20213;-88
2023/09/05 09:23:35;;;;;;;2.20;1.80;;;;;;;;;;4994498;28;20208;-88
2023/09/05 09:26:03;;;;;;;1.58;1.48;;;;;;;;;;4999333;28;20286;-88
2023/09/05 09:28:32;;;;;;;1.63;1.52;;;;;;;;;;5010114;28;20229;-88
2023/09/05 09:31:01;;;;;;;2.72;1.70;;;;;;;;;;5001628;28;20246;-87
2023/09/05 09:33:29;;;;;;;1.77;1.52;;;;;;;;;;5011052;28;20249;-88
2023/09/05 09:36:06;;;;;;;2.13;1.52;;;;;;;;;;5006231;28;20216;-87
2023/09/05 09:38:34;;;;;;;2.80;1.70;;;;;;;;;;5006299;28;20235;-87
2023/09/05 09:41:02;;;;;;;1.65;1.55;;;;;;;;;;5002736;28;20217;-88
2023/09/05 09:43:29;;;;;;;1.63;1.50;;;;;;;;;;5001311;28;20216;-87
2023/09/05 09:45:59;;;;;;;1.83;1.60;;;;;;;;;;5003633;28;20213;-88
2023/09/05 09:48:27;;;;;;;1.50;1.40;;;;;;;;;;5009805;28;20561;-87
2023/09/05 09:50:55;;;;;;;1.83;1.70;;;;;;;;;;5006692;28;20262;-87
2023/09/05 09:53:28;;;;;;;1.75;1.58;;;;;;;;;;5008740;28;20227;-87
2023/09/05 09:55:55;;;;;;;2.30;1.60;;;;;;;;;;5004878;28;20217;-88
2023/09/05 09:58:24;;;;;;;2.42;1.65;;;;;;;;;;5007448;28;20295;-89
2023/09/05 10:00:52;;;;;;;1.42;1.38;;;;;;;;;;5005466;28;20205;-88
2023/09/05 10:03:24;;;;;;;1.50;1.40;;;;;;;;;;5005139;28;20209;-88
2023/09/05 10:05:53;;;;;;;2.58;1.60;;;;;;;;;;5006912;28;20438;-88
2023/09/05 10:08:21;;;;;;;1.35;1.30;;;;;;;;;;5005959;28;20235;-88
2023/09/05 10:10:51;;;;;;;2.22;1.60;;;;;;;;;;5008730;28;20275;-87
2023/09/05 10:13:21;;;;;;;1.45;1.35;;;;;;;;;;5006337;28;20233;-88
2023/09/05 10:15:49;;;;;;;1.67;1.58;;;;;;;;;;5009277;28;20205;-88
2023/09/05 10:18:18;;;;;;;1.83;1.30;;;;;;;;;;5010064;28;20209;-87
2023/09/05 10:20:48;;;;;;;1.77;1.67;;;;;;;;;;5003782;28;20240;-88
2023/09/05 10:23:17;;;;;;;1.63;1.52;;;;;;;;;;5008959;28;20267;-92
2023/09/05 10:25:46;;;;;;;1.70;1.33;;;;;;;;;;5007163;28;20248;-92
2023/09/05 10:28:14;;;;;;;2.60;1.33;;;;;;;;;;5015176;28;20240;-92
2023/09/05 10:30:43;;;;;;;1.75;1.50;;;;;;;;;;5007950;28;20222;-92
2023/09/05 10:33:10;;;;;;;1.60;1.50;;;;;;;;;;5005871;28;20243;-92
2023/09/05 10:35:38;;;;;;;1.48;1.38;;;;;;;;;;5001116;28;20244;-92
2023/09/05 10:38:07;;;;;;;1.48;1.38;;;;;;;;;;5008808;28;20217;-94
2023/09/05 10:40:36;;;;;;;1.20;1.20;;;;;;;;;;5008245;28;20300;-91
2023/09/05 10:43:04;;;;;;;1.65;1.55;;;;;;;;;;5001201;28;20277;-93
2023/09/05 10:45:35;;;;;;;2.03;1.30;;;;;;;;;;5003373;28;20235;-93
2023/09/05 10:48:04;;;;;;;1.70;1.60;;;;;;;;;;5001766;28;20209;-92
2023/09/05 10:50:32;;;;;;;1.50;1.40;;;;;;;;;;5003059;28;20209;-90
2023/09/05 10:53:18;;;;;;;2.88;1.50;;;;;;;;;;5002790;28;20219;-90
2023/09/05 10:55:50;;;;;;;2.78;1.50;;;;;;;;;;5005838;28;20233;-91
2023/09/05 10:58:36;;;;;;;1.50;1.40;;;;;;;;;;5000774;28;20209;-90
2023/09/05 11:01:04;;;;;;;2.28;1.35;;;;;;;;;;5001652;28;20288;-93
2023/09/05 11:03:38;;;;;;;1.77;1.50;;;;;;;;;;5001059;28;20208;-93
2023/09/05 11:06:16;;;;;;;3.05;1.63;;;;;;;;;;5005782;28;20310;-91
2023/09/05 11:08:45;;;;;;;1.60;1.50;;;;;;;;;;5003837;28;20212;-93
2023/09/05 11:11:24;;;;;;;1.40;1.30;;;;;;;;;;4999720;28;20225;-92
2023/09/05 11:13:51;;;;;;;1.45;1.35;;;;;;;;;;5004107;28;20235;-91
2023/09/05 11:16:19;;;;;;;1.45;1.35;;;;;;;;;;5003594;28;20272;-93
2023/09/05 11:18:46;;;;;;;1.52;1.42;;;;;;;;;;4999406;28;20304;-91
2023/09/05 11:21:20;;;;;;;1.65;1.55;;;;;;;;;;5002167;28;20252;-93
2023/09/05 11:23:52;;;;;;;2.28;1.50;;;;;;;;;;5003883;28;20236;-93
2023/09/05 11:26:21;;;;;;;2.65;1.42;;;;;;;;;;5002559;28;20212;-93
2023/09/05 11:28:51;;;;;;;2.30;1.40;;;;;;;;;;5002381;28;20332;-93
2023/09/05 11:31:19;;;;;;;2.80;1.50;;;;;;;;;;5001579;28;20228;-92
2023/09/05 11:33:46;;;;;;;1.95;1.50;;;;;;;;;;5001242;28;20245;-87
2023/09/05 11:36:14;;;;;;;1.48;1.38;;;;;;;;;;5001411;28;20251;-88
2023/09/05 11:38:46;;;;;;;1.60;1.50;;;;;;;;;;5002000;28;20305;-88
2023/09/05 11:41:13;;;;;;;5.10;1.65;;;;;;;;;;4995925;28;20201;-88
2023/09/05 11:43:47;;;;;;;1.65;1.42;;;;;;;;;;5001600;28;20204;-88
2023/09/05 11:46:14;;;;;;;1.50;1.40;;;;;;;;;;4999983;28;20204;-87
2023/09/05 11:48:43;;;;;;;2.78;1.50;;;;;;;;;;5000287;28;20205;-88
2023/09/05 11:51:12;;;;;;;1.42;1.33;;;;;;;;;;5000605;28;20224;-87
2023/09/05 11:53:39;;;;;;;1.38;1.33;;;;;;;;;;4994794;28;20215;-88
2023/09/05 11:56:06;;;;;;;1.73;1.60;;;;;;;;;;5001201;28;20217;-88
2023/09/05 11:58:34;;;;;;;1.52;1.30;;;;;;;;;;5001132;28;20250;-88
2023/09/05 12:01:03;;;;;;;1.63;1.50;;;;;;;;;;5007017;28;20209;-88
2023/09/05 12:03:31;;;;;;;1.40;1.30;;;;;;;;;;5002389;28;20304;-88
2023/09/05 12:05:58;;;;;;;2.15;1.30;;;;;;;;;;5003242;28;20201;-87
2023/09/05 12:08:25;;;;;;;1.40;1.30;;;;;;;;;;5004440;28;20200;-88
2023/09/05 12:10:55;;;;;;;1.77;1.20;;;;;;;;;;5001775;28;20259;-87
2023/09/05 12:13:36;;;;;;;1.20;1.20;;;;;;;;;;5002641;28;20202;-88
2023/09/05 12:16:05;;;;;;;1.42;1.40;;;;;;;;;;4999568;28;20212;-88
2023/09/05 12:18:32;;;;;;;1.65;1.42;;;;;;;;;;5001445;28;20210;-88
2023/09/05 12:21:00;;;;;;;2.00;1.30;;;;;;;;;;5003177;28;20220;-89
2023/09/05 12:23:27;;;;;;;1.85;1.63;;;;;;;;;;5002101;28;20216;-88
2023/09/05 12:25:55;;;;;;;1.38;1.27;;;;;;;;;;4994077;28;20233;-88
2023/09/05 12:28:22;;;;;;;1.60;1.50;;;;;;;;;;4995876;28;20217;-87
2023/09/05 12:30:50;;;;;;;1.25;1.17;;;;;;;;;;5002328;28;20211;-88
2023/09/05 12:33:19;;;;;;;1.42;1.30;;;;;;;;;;4998179;28;20300;-88
2023/09/05 12:35:46;;;;;;;2.67;1.27;;;;;;;;;;5002450;28;20291;-88
2023/09/05 12:38:13;;;;;;;1.42;1.30;;;;;;;;;;4997241;28;20209;-87
2023/09/05 12:40:43;;;;;;;1.80;1.70;;;;;;;;;;4997382;28;20204;-88
2023/09/05 12:43:10;;;;;;;2.72;1.38;;;;;;;;;;4999651;28;20206;-92
2023/09/05 12:45:38;;;;;;;1.10;1.10;;;;;;;;;;5008170;28;20209;-93
2023/09/05 12:48:07;;;;;;;1.40;1.30;;;;;;;;;;4997009;28;20228;-92
2023/09/05 12:50:37;;;;;;;1.60;1.50;;;;;;;;;;5006229;28;20217;-92
2023/09/05 12:53:05;;;;;;;2.30;1.25;;;;;;;;;;5010649;28;20217;-92
2023/09/05 12:55:33;;;;;;;2.88;1.40;;;;;;;;;;4998477;28;20225;-91
2023/09/05 12:58:03;;;;;;;2.25;1.20;;;;;;;;;;5004387;28;20296;-93
2023/09/05 13:00:30;;;;;;;1.17;1.10;;;;;;;;;;5010134;28;20213;-92
2023/09/05 13:02:58;;;;;;;2.88;1.30;;;;;;;;;;5002652;28;20213;-91
2023/09/05 13:05:27;;;;;;;1.52;1.30;;;;;;;;;;5004075;28;20307;-94
2023/09/05 13:07:55;;;;;;;1.90;1.20;;;;;;;;;;5001464;28;20217;-93
2023/09/05 13:10:22;;;;;;;1.27;1.20;;;;;;;;;;5009359;28;20207;-91
2023/09/05 13:12:51;;;;;;;1.90;1.65;;;;;;;;;;5005573;28;20231;-94
2023/09/05 13:15:18;;;;;;;1.40;1.30;;;;;;;;;;5001952;28;20296;-93
2023/09/05 13:17:46;;;;;;;1.15;1.10;;;;;;;;;;5006054;28;20276;-93
2023/09/05 13:20:14;;;;;;;1.35;1.25;;;;;;;;;;5004576;28;20213;-94
2023/09/05 13:22:47;;;;;;;3.33;1.40;;;;;;;;;;5008792;28;20236;-93
2023/09/05 13:25:16;;;;;;;4.40;1.50;;;;;;;;;;5009734;28;20202;-93
2023/09/05 13:27:44;;;;;;;2.40;1.30;;;;;;;;;;5004582;28;20213;-91
2023/09/05 13:30:13;;;;;;;1.45;1.35;;;;;;;;;;5004551;28;20224;-95
2023/09/05 13:32:41;;;;;;;1.50;1.20;;;;;;;;;;5001402;28;20228;-94
2023/09/05 13:35:09;;;;;;;1.30;1.20;;;;;;;;;;5010449;28;20213;-94
2023/09/05 13:37:36;;;;;;;1.42;1.33;;;;;;;;;;5007190;28;20212;-93
2023/09/05 13:40:04;;;;;;;1.38;1.20;;;;;;;;;;5006271;28;20233;-93
2023/09/05 13:42:33;;;;;;;1.83;1.30;;;;;;;;;;5005158;28;20204;-94
2023/09/05 13:45:02;;;;;;;1.15;1.15;;;;;;;;;;5017726;28;20219;-93
2023/09/05 13:47:30;;;;;;;1.48;1.27;;;;;;;;;;5006783;28;20217;-91
2023/09/05 13:49:58;;;;;;;1.52;1.30;;;;;;;;;;5003556;28;20212;-92
2023/09/05 13:52:25;;;;;;;1.60;1.40;;;;;;;;;;5003265;28;20279;-88
2023/09/05 13:54:52;;;;;;;1.88;1.35;;;;;;;;;;5004792;28;20253;-88
2023/09/05 13:57:22;;;;;;;1.20;1.20;;;;;;;;;;5000603;28;20211;-89
2023/09/05 13:59:54;;;;;;;1.38;1.27;;;;;;;;;;5010743;28;20231;-88
2023/09/05 14:02:22;;;;;;;1.50;1.40;;;;;;;;;;5004887;28;20216;-88
2023/09/05 14:04:49;;;;;;;2.05;1.23;;;;;;;;;;5013286;28;20204;-89
2023/09/05 14:07:16;;;;;;;3.00;1.20;;;;;;;;;;4999188;28;20264;-88
2023/09/05 14:09:44;;;;;;;1.40;1.30;;;;;;;;;;5002231;28;20233;-88
2023/09/05 14:12:17;;;;;;;3.13;1.45;;;;;;;;;;4999446;28;20292;-88
2023/09/05 14:14:45;;;;;;;1.27;1.17;;;;;;;;;;4997939;28;20210;-88
2023/09/05 14:17:15;;;;;;;1.30;1.20;;;;;;;;;;5004842;28;20299;-87
2023/09/05 14:19:43;;;;;;;1.38;1.23;;;;;;;;;;5000169;28;20209;-88
2023/09/05 14:22:11;;;;;;;1.73;1.40;;;;;;;;;;5003296;28;20277;-88
2023/09/05 14:24:38;;;;;;;6.07;1.40;;;;;;;;;;5007384;28;20213;-88
2023/09/05 14:27:05;;;;;;;1.10;1.10;;;;;;;;;;5002844;28;20276;-89
2023/09/05 14:29:33;;;;;;;1.50;1.40;;;;;;;;;;5005554;28;20204;-88
2023/09/05 14:32:00;;;;;;;1.55;1.10;;;;;;;;;;5004656;28;20202;-88
2023/09/05 14:34:29;;;;;;;1.60;1.40;;;;;;;;;;5007989;28;20205;-87
2023/09/05 14:36:56;;;;;;;2.92;1.38;;;;;;;;;;5005375;28;21103;-88
2023/09/05 14:39:24;;;;;;;4.00;1.40;;;;;;;;;;5006157;28;20267;-87
2023/09/05 14:41:52;;;;;;;5.05;1.30;;;;;;;;;;5009038;28;20228;-88
2023/09/05 14:44:19;;;;;;;1.42;1.25;;;;;;;;;;5001846;28;20213;-88
2023/09/05 14:46:47;;;;;;;2.30;1.40;;;;;;;;;;5001254;28;20215;-88
2023/09/05 14:49:14;;;;;;;1.45;1.35;;;;;;;;;;4999805;28;20272;-88
2023/09/05 14:51:42;;;;;;;1.77;1.13;;;;;;;;;;5004433;28;20220;-88
2023/09/05 14:54:11;;;;;;;1.27;1.20;;;;;;;;;;5004487;28;20220;-87
2023/09/05 14:56:43;;;;;;;1.55;1.27;;;;;;;;;;5009557;28;20205;-88